createdAt,value
2019-04-16T00:00:11.875Z,102963.87
2019-04-16T00:02:58.881Z,102960.28
2019-04-16T00:05:39.035Z,102956.64
2019-04-16T00:08:27.859Z,102958.13
2019-04-16T00:10:56.047Z,102953.28
2019-04-16T00:13:34.011Z,102901.91
2019-04-16T00:16:06.210Z,102947.92
2019-04-16T00:18:39.008Z,102940.97
2019-04-16T00:21:21.403Z,102941.16
2019-04-16T00:23:54.986Z,102940.33
2019-04-16T00:26:27.572Z,102928.08
2019-04-16T00:29:03.196Z,102932.30
2019-04-16T00:31:37.032Z,102922.48
2019-04-16T00:34:13.349Z,102919.48
2019-04-16T00:36:48.478Z,102923.05
2019-04-16T00:39:19.144Z,102917.37
2019-04-16T00:41:52.504Z,102916.88
2019-04-16T00:44:25.581Z,102914.41
2019-04-16T00:46:57.800Z,102914.69
2019-04-16T00:49:31.764Z,102909.21
2019-04-16T00:52:06.702Z,102913.46
2019-04-16T00:54:43.230Z,102910.53
2019-04-16T00:57:17.772Z,102909.06
2019-04-16T00:59:48.992Z,102907.29
2019-04-16T01:02:21.005Z,102908.13
2019-04-16T01:04:53.303Z,102911.95
2019-04-16T01:07:26.087Z,102910.40
2019-04-16T01:09:58.073Z,102906.67
2019-04-16T01:12:29.973Z,102901.88
2019-04-16T01:15:02.043Z,102899.96
2019-04-16T01:17:36.088Z,102902.41
2019-04-16T01:20:11.822Z,102896.90
2019-04-16T01:22:46.583Z,102900.78
2019-04-16T01:25:15.570Z,102899.34
2019-04-16T01:27:49.115Z,102849.20
2019-04-16T01:30:22.717Z,102892.47
2019-04-16T01:33:02.260Z,102895.66
2019-04-16T01:35:51.202Z,102866.77
2019-04-16T01:38:28.062Z,102890.89
2019-04-16T01:41:07.003Z,102892.34
2019-04-16T01:43:39.086Z,102891.42
2019-04-16T01:46:11.393Z,102883.39
2019-04-16T01:48:43.379Z,102883.14
2019-04-16T01:51:16.222Z,102884.58
2019-04-16T01:53:49.445Z,102882.58
2019-04-16T01:56:21.990Z,102877.51
2019-04-16T01:58:53.991Z,102883.67
2019-04-16T02:01:26.063Z,102831.95
2019-04-16T02:03:58.037Z,102885.38
2019-04-16T02:06:29.946Z,102883.65
2019-04-16T02:09:03.178Z,102881.70
2019-04-16T02:11:35.618Z,102882.64
2019-04-16T02:14:07.701Z,102881.17
2019-04-16T02:16:39.633Z,102878.26
2019-04-16T02:19:11.588Z,102882.02
2019-04-16T02:21:43.552Z,102823.45
2019-04-16T02:24:18.561Z,102881.80
2019-04-16T02:26:49.265Z,102882.89
2019-04-16T02:29:21.199Z,102883.77
2019-04-16T02:31:53.507Z,102881.55
2019-04-16T02:34:25.623Z,102877.34
2019-04-16T02:37:02.457Z,102874.62
2019-04-16T02:39:47.168Z,102870.30
2019-04-16T02:42:05.094Z,102879.42
2019-04-16T02:44:37.096Z,102877.98
2019-04-16T02:47:09.351Z,102876.11
2019-04-16T02:49:41.303Z,102877.40
2019-04-16T02:52:26.888Z,102874.73
2019-04-16T02:55:07.714Z,102870.19
2019-04-16T02:57:44.750Z,102873.19
2019-04-16T03:00:18.599Z,102870.66
2019-04-16T03:02:54.853Z,102872.28
2019-04-16T03:05:34.091Z,102873.75
2019-04-16T03:08:06.308Z,102866.23
2019-04-16T03:10:38.375Z,102865.28
2019-04-16T03:13:10.386Z,102863.57
2019-04-16T03:15:53.001Z,102864.50
2019-04-16T03:18:26.605Z,102865.19
2019-04-16T03:20:58.541Z,102866.08
2019-04-16T03:23:30.892Z,102856.54
2019-04-16T03:26:02.969Z,102858.13
2019-04-16T03:28:35.015Z,102857.66
2019-04-16T03:31:09.080Z,102855.97
2019-04-16T03:33:48.337Z,102855.00
2019-04-16T03:36:14.455Z,102850.94
2019-04-16T03:38:46.449Z,102848.49
2019-04-16T03:41:18.385Z,102853.67
2019-04-16T03:43:50.321Z,102853.69
2019-04-16T03:46:22.433Z,102855.23
2019-04-16T03:48:56.181Z,102852.92
2019-04-16T03:51:28.065Z,102850.01
2019-04-16T03:54:00.009Z,102847.09
2019-04-16T03:56:32.210Z,102848.05
2019-04-16T03:59:04.233Z,102847.02
2019-04-16T04:01:36.245Z,102852.05
2019-04-16T04:04:08.139Z,102849.98
2019-04-16T04:06:40.645Z,102850.83
2019-04-16T04:09:12.604Z,102840.45
2019-04-16T04:11:44.717Z,102840.51
2019-04-16T04:14:22.157Z,102839.86
2019-04-16T04:16:50.288Z,102836.19
2019-04-16T04:19:22.464Z,102838.22
2019-04-16T04:21:54.524Z,102839.69
2019-04-16T04:24:28.476Z,102840.73
2019-04-16T04:27:00.111Z,102831.25
2019-04-16T04:29:32.167Z,102832.78
2019-04-16T04:32:04.350Z,102833.28
2019-04-16T04:34:36.404Z,102836.30
2019-04-16T04:37:08.341Z,102830.15
2019-04-16T04:39:43.586Z,102837.63
2019-04-16T04:42:13.910Z,102834.30
2019-04-16T04:44:47.167Z,102827.58
2019-04-16T04:47:20.142Z,102826.36
2019-04-16T04:49:52.203Z,102824.88
2019-04-16T04:52:27.232Z,102823.42
2019-04-16T04:54:57.866Z,102822.28
2019-04-16T04:57:31.164Z,102827.23
2019-04-16T05:00:08.379Z,102788.58
2019-04-16T05:02:40.083Z,102826.27
2019-04-16T05:05:24.569Z,102823.63
2019-04-16T05:07:53.378Z,102827.98
2019-04-16T05:10:25.350Z,102828.39
2019-04-16T05:12:57.302Z,102828.32
2019-04-16T05:15:30.054Z,102832.83
2019-04-16T05:18:02.103Z,102828.22
2019-04-16T05:20:34.011Z,102828.58
2019-04-16T05:23:05.990Z,102830.13
2019-04-16T05:25:37.900Z,102827.75
2019-04-16T05:28:12.104Z,102829.68
2019-04-16T05:30:43.465Z,102831.91
2019-04-16T05:33:15.581Z,102827.56
2019-04-16T05:35:47.638Z,102827.08
2019-04-16T05:38:20.442Z,102830.20
2019-04-16T05:40:53.330Z,102825.48
2019-04-16T05:43:30.052Z,102823.72
2019-04-16T05:45:58.956Z,102829.05
2019-04-16T05:48:31.185Z,102824.06
2019-04-16T05:51:03.255Z,102826.32
2019-04-16T05:53:37.407Z,102826.20
2019-04-16T05:56:12.098Z,102821.08
2019-04-16T05:58:44.056Z,102827.78
2019-04-16T06:01:20.466Z,102823.83
2019-04-16T06:03:53.536Z,102819.98
2019-04-16T06:06:28.563Z,102818.41
2019-04-16T06:08:59.792Z,102820.00
2019-04-16T06:11:35.793Z,102817.89
2019-04-16T06:14:07.012Z,102820.25
2019-04-16T06:16:57.659Z,102812.95
2019-04-16T06:19:34.008Z,102811.30
2019-04-16T06:22:13.675Z,102813.64
2019-04-16T06:24:49.978Z,102814.13
2019-04-16T06:27:23.565Z,102816.30
2019-04-16T06:30:13.366Z,102808.35
2019-04-16T06:32:59.124Z,102798.58
2019-04-16T06:35:43.228Z,102801.14
2019-04-16T06:38:08.338Z,102804.77
2019-04-16T06:41:03.023Z,102803.30
2019-04-16T06:43:36.548Z,102808.29
2019-04-16T06:46:13.224Z,102801.91
2019-04-16T06:48:52.729Z,102804.15
2019-04-16T06:51:26.315Z,102796.11
2019-04-16T06:54:15.748Z,102797.08
2019-04-16T06:56:52.256Z,102786.55
2019-04-16T06:59:30.401Z,102792.10
2019-04-16T07:02:03.946Z,102792.48
2019-04-16T07:04:37.507Z,102797.20
2019-04-16T07:07:14.167Z,102796.66
2019-04-16T07:09:57.762Z,102802.27
2019-04-16T07:12:29.946Z,102799.25
2019-04-16T07:15:02.030Z,102746.72
2019-04-16T07:17:34.572Z,102781.47
2019-04-16T07:20:13.195Z,102787.81
2019-04-16T07:22:41.612Z,102783.31
2019-04-16T07:25:14.107Z,102778.41
2019-04-16T07:28:03.156Z,102784.44
2019-04-16T07:30:39.983Z,102781.91
2019-04-16T07:33:12.026Z,102781.58
2019-04-16T07:35:45.641Z,102783.54
2019-04-16T07:38:22.575Z,102784.83
2019-04-16T07:41:04.690Z,102784.66
2019-04-16T07:43:54.882Z,102786.69
2019-04-16T07:46:32.096Z,102786.02
2019-04-16T07:49:05.791Z,102778.28
2019-04-16T07:51:55.580Z,102782.54
2019-04-16T07:54:32.041Z,102787.02
2019-04-16T07:57:04.144Z,102780.11
2019-04-16T07:59:36.150Z,102779.25
2019-04-16T08:02:08.148Z,102778.44
2019-04-16T08:04:40.193Z,102783.10
2019-04-16T08:07:12.522Z,102780.13
2019-04-16T08:09:44.579Z,102780.45
2019-04-16T08:12:30.095Z,102776.74
2019-04-16T08:14:50.660Z,102778.59
2019-04-16T08:17:22.858Z,102777.75
2019-04-16T08:19:55.804Z,102759.07
2019-04-16T08:22:28.075Z,102773.08
2019-04-16T08:25:04.650Z,102780.19
2019-04-16T08:27:36.826Z,102781.75
2019-04-16T08:30:12.066Z,102779.56
2019-04-16T08:32:45.830Z,102779.39
2019-04-16T08:35:17.890Z,102776.98
2019-04-16T08:37:49.827Z,102780.48
2019-04-16T08:40:21.776Z,102779.63
2019-04-16T08:42:57.021Z,102777.19
2019-04-16T08:45:27.572Z,102777.16
2019-04-16T08:48:00.530Z,102780.00
2019-04-16T08:50:33.976Z,102785.66
2019-04-16T08:53:06.571Z,102791.55
2019-04-16T08:55:38.753Z,102785.16
2019-04-16T08:58:12.882Z,102783.75
2019-04-16T09:00:47.760Z,102780.91
2019-04-16T09:03:20.530Z,102780.94
2019-04-16T09:05:52.891Z,102787.62
2019-04-16T09:08:32.718Z,102775.53
2019-04-16T09:11:04.915Z,102778.33
2019-04-16T09:13:47.287Z,102777.96
2019-04-16T09:16:18.248Z,102778.28
2019-04-16T09:19:07.398Z,102778.19
2019-04-16T09:21:43.400Z,102768.13
2019-04-16T09:24:26.706Z,102776.88
2019-04-16T09:27:13.610Z,102767.41
2019-04-16T09:29:50.273Z,102773.78
2019-04-16T09:32:29.885Z,102726.06
2019-04-16T09:35:20.444Z,102774.28
2019-04-16T09:37:54.228Z,102769.63
2019-04-16T09:40:28.759Z,102765.00
2019-04-16T09:43:15.767Z,102715.19
2019-04-16T09:45:37.369Z,102770.62
2019-04-16T09:48:10.103Z,102763.17
2019-04-16T09:50:46.489Z,102762.34
2019-04-16T09:53:15.788Z,102765.06
2019-04-16T09:55:50.628Z,102763.11
2019-04-16T09:58:27.477Z,102769.47
2019-04-16T10:01:01.298Z,102773.41
2019-04-16T10:03:35.377Z,102771.88
2019-04-16T10:06:07.961Z,102769.39
2019-04-16T10:08:44.335Z,102773.20
2019-04-16T10:11:13.953Z,102770.34
2019-04-16T10:13:45.987Z,102754.27
2019-04-16T10:16:19.909Z,102760.91
2019-04-16T10:18:52.153Z,102756.20
2019-04-16T10:21:24.174Z,102706.56
2019-04-16T10:24:00.772Z,102751.39
2019-04-16T10:26:32.820Z,102746.47
2019-04-16T10:29:06.723Z,102741.69
2019-04-16T10:31:38.753Z,102742.92
2019-04-16T10:34:11.019Z,102748.55
2019-04-16T10:36:43.020Z,102740.17
2019-04-16T10:39:16.932Z,102745.87
2019-04-16T10:41:56.277Z,102734.00
2019-04-16T10:44:44.309Z,102735.79
2019-04-16T10:47:35.738Z,102700.16
2019-04-16T10:50:24.691Z,102726.66
2019-04-16T10:53:14.519Z,102730.47
2019-04-16T10:56:06.453Z,102724.34
2019-04-16T10:58:46.113Z,102722.63
2019-04-16T11:01:22.479Z,102713.55
2019-04-16T11:04:04.806Z,102706.50
2019-04-16T11:06:42.703Z,102711.09
2019-04-16T11:09:14.781Z,102716.45
2019-04-16T11:11:46.805Z,102708.03
2019-04-16T11:14:18.927Z,102710.02
2019-04-16T11:16:51.368Z,102708.31
2019-04-16T11:19:23.373Z,102698.41
2019-04-16T11:21:55.322Z,102703.92
2019-04-16T11:24:27.368Z,102693.34
2019-04-16T11:26:59.695Z,102695.83
2019-04-16T11:29:31.650Z,102690.34
2019-04-16T11:32:03.770Z,102684.27
2019-04-16T11:34:35.862Z,102683.01
2019-04-16T11:37:09.365Z,102682.30
2019-04-16T11:39:41.677Z,102683.54
2019-04-16T11:42:13.926Z,102684.03
2019-04-16T11:44:50.148Z,102687.47
2019-04-16T11:47:20.586Z,102684.59
2019-04-16T11:49:52.633Z,102687.30
2019-04-16T11:52:24.837Z,102681.67
2019-04-16T11:54:57.088Z,102636.09
2019-04-16T11:57:33.268Z,102681.89
2019-04-16T12:00:09.343Z,102638.47
2019-04-16T12:02:43.123Z,102689.25
2019-04-16T12:05:16.903Z,102685.19
2019-04-16T12:07:50.833Z,102690.48
2019-04-16T12:10:27.225Z,102678.36
2019-04-16T12:13:17.418Z,102679.92
2019-04-16T12:15:53.803Z,102677.33
2019-04-16T12:18:33.433Z,102673.91
2019-04-16T12:21:09.703Z,102678.66
2019-04-16T12:23:43.355Z,102668.78
2019-04-16T12:26:19.946Z,102673.69
2019-04-16T12:29:05.845Z,102668.45
2019-04-16T12:31:55.533Z,102672.78
2019-04-16T12:34:41.117Z,102674.78
2019-04-16T12:37:14.888Z,102661.64
2019-04-16T12:39:57.564Z,102666.74
2019-04-16T12:42:41.214Z,102666.22
2019-04-16T12:45:31.606Z,102666.09
2019-04-16T12:48:05.365Z,102658.45
2019-04-16T12:50:39.045Z,102664.91
2019-04-16T12:53:13.014Z,102665.56
2019-04-16T12:55:49.676Z,102663.03
2019-04-16T12:58:41.470Z,102651.56
2019-04-16T13:01:24.195Z,102663.17
2019-04-16T13:03:57.866Z,102658.83
2019-04-16T13:06:40.128Z,102657.41
2019-04-16T13:09:16.872Z,102660.36
2019-04-16T13:11:50.513Z,102660.20
2019-04-16T13:14:30.073Z,102618.81
2019-04-16T13:17:03.696Z,102656.55
2019-04-16T13:19:37.431Z,102659.12
2019-04-16T13:22:11.134Z,102651.16
2019-04-16T13:24:50.515Z,102656.73
2019-04-16T13:27:27.236Z,102651.03
2019-04-16T13:30:01.887Z,102654.97
2019-04-16T13:32:33.033Z,102646.69
2019-04-16T13:35:07.259Z,102648.56
2019-04-16T13:37:39.301Z,102638.10
2019-04-16T13:40:14.048Z,102640.16
2019-04-16T13:42:46.094Z,102635.94
2019-04-16T13:45:25.704Z,102638.22
2019-04-16T13:47:56.243Z,102636.64
2019-04-16T13:50:40.989Z,102635.23
2019-04-16T13:53:14.014Z,102628.65
2019-04-16T13:56:04.192Z,102629.24
2019-04-16T13:58:37.801Z,102623.97
2019-04-16T14:01:17.563Z,102627.86
2019-04-16T14:03:49.863Z,102625.08
2019-04-16T14:06:22.168Z,102631.14
2019-04-16T14:08:54.559Z,102623.09
2019-04-16T14:11:26.846Z,102618.88
2019-04-16T14:13:59.317Z,102627.88
2019-04-16T14:16:31.878Z,102633.22
2019-04-16T14:19:06.040Z,102634.51
2019-04-16T14:21:39.613Z,102588.88
2019-04-16T14:24:12.959Z,102631.81
2019-04-16T14:26:45.311Z,102630.02
2019-04-16T14:29:17.967Z,102629.08
2019-04-16T14:31:49.997Z,102585.53
2019-04-16T14:34:23.930Z,102627.26
2019-04-16T14:36:56.974Z,102630.05
2019-04-16T14:39:31.317Z,102630.91
2019-04-16T14:42:03.561Z,102632.50
2019-04-16T14:44:40.212Z,102627.28
2019-04-16T14:47:12.254Z,102626.94
2019-04-16T14:49:44.306Z,102624.27
2019-04-16T14:52:16.323Z,102626.14
2019-04-16T14:54:52.991Z,102633.23
2019-04-16T14:57:25.016Z,102632.47
2019-04-16T15:00:15.111Z,102624.85
2019-04-16T15:02:49.077Z,102627.65
2019-04-16T15:05:22.732Z,102625.12
2019-04-16T15:07:59.378Z,102627.80
2019-04-16T15:10:50.965Z,102628.06
2019-04-16T15:13:24.869Z,102622.05
2019-04-16T15:16:09.438Z,102624.05
2019-04-16T15:18:43.268Z,102625.42
2019-04-16T15:21:29.064Z,102625.66
2019-04-16T15:24:02.984Z,102624.52
2019-04-16T15:26:39.610Z,102637.91
2019-04-16T15:29:13.176Z,102626.16
2019-04-16T15:32:06.131Z,102635.05
2019-04-16T15:34:43.031Z,102631.87
2019-04-16T15:37:15.192Z,102642.19
2019-04-16T15:39:54.806Z,102639.22
2019-04-16T15:42:28.507Z,102635.59
2019-04-16T15:45:02.167Z,102641.02
2019-04-16T15:47:47.849Z,102637.98
2019-04-16T15:50:35.764Z,102646.26
2019-04-16T15:53:09.158Z,102642.56
2019-04-16T15:55:42.755Z,102650.95
2019-04-16T15:58:16.358Z,102644.27
2019-04-16T16:01:06.045Z,102641.25
2019-04-16T16:03:55.907Z,102648.70
2019-04-16T16:06:29.774Z,102660.84
2019-04-16T16:09:13.109Z,102657.43
2019-04-16T16:11:58.876Z,102664.70
2019-04-16T16:14:34.658Z,102662.17
2019-04-16T16:17:04.755Z,102665.59
2019-04-16T16:19:36.811Z,102667.27
2019-04-16T16:22:11.979Z,102673.80
2019-04-16T16:24:43.398Z,102672.52
2019-04-16T16:27:15.753Z,102680.39
2019-04-16T16:29:47.756Z,102675.69
2019-04-16T16:32:20.038Z,102689.77
2019-04-16T16:34:52.064Z,102698.58
2019-04-16T16:37:24.049Z,102697.98
2019-04-16T16:39:56.300Z,102701.69
2019-04-16T16:42:28.333Z,102690.41
2019-04-16T16:45:01.638Z,102706.77
2019-04-16T16:47:39.542Z,102705.72
2019-04-16T16:50:12.069Z,102705.52
2019-04-16T16:52:51.980Z,102700.51
2019-04-16T16:55:25.600Z,102710.93
2019-04-16T16:57:59.617Z,102713.28
2019-04-16T17:00:49.385Z,102716.22
2019-04-16T17:03:23.303Z,102720.16
2019-04-16T17:05:56.572Z,102715.86
2019-04-16T17:08:30.223Z,102723.23
2019-04-16T17:11:14.614Z,102682.17
2019-04-16T17:13:36.329Z,102730.19
2019-04-16T17:16:13.318Z,102735.61
2019-04-16T17:18:45.315Z,102729.88
2019-04-16T17:21:16.264Z,102730.44
2019-04-16T17:23:48.548Z,102735.25
2019-04-16T17:26:20.622Z,102737.44
2019-04-16T17:28:52.571Z,102742.72
2019-04-16T17:31:25.031Z,102742.78
2019-04-16T17:33:57.443Z,102744.98
2019-04-16T17:36:29.766Z,102759.69
2019-04-16T17:39:01.831Z,102750.33
2019-04-16T17:41:41.636Z,102766.88
2019-04-16T17:44:15.302Z,102764.56
2019-04-16T17:46:48.901Z,102760.94
2019-04-16T17:49:36.092Z,102766.72
2019-04-16T17:52:18.727Z,102772.37
2019-04-16T17:55:07.576Z,102773.96
2019-04-16T17:57:42.842Z,102779.61
2019-04-16T18:00:16.647Z,102772.86
2019-04-16T18:02:50.648Z,102773.04
2019-04-16T18:05:33.373Z,102777.45
2019-04-16T18:08:16.581Z,102775.34
2019-04-16T18:10:50.272Z,102791.00
2019-04-16T18:13:32.263Z,102796.53
2019-04-16T18:16:16.730Z,102787.86
2019-04-16T18:19:05.856Z,102796.50
2019-04-16T18:21:42.916Z,102794.23
2019-04-16T18:24:31.879Z,102801.91
2019-04-16T18:27:08.758Z,102798.94
2019-04-16T18:29:45.920Z,102800.14
2019-04-16T18:32:37.633Z,102802.16
2019-04-16T18:35:25.961Z,102802.91
2019-04-16T18:37:59.606Z,102806.92
2019-04-16T18:40:38.993Z,102819.73
2019-04-16T18:43:12.616Z,102815.67
2019-04-16T18:46:04.355Z,102820.01
2019-04-16T18:48:38.282Z,102764.88
2019-04-16T18:51:10.239Z,102767.08
2019-04-16T18:53:43.371Z,102813.82
2019-04-16T18:56:16.120Z,102817.76
2019-04-16T18:58:48.082Z,102818.12
2019-04-16T19:01:25.079Z,102825.33
2019-04-16T19:03:57.114Z,102828.12
2019-04-16T19:06:29.259Z,102825.94
2019-04-16T19:09:01.384Z,102832.23
2019-04-16T19:11:33.413Z,102835.83
2019-04-16T19:14:05.650Z,102834.72
2019-04-16T19:16:37.928Z,102843.17
2019-04-16T19:19:10.199Z,102833.87
2019-04-16T19:21:42.857Z,102835.57
2019-04-16T19:24:15.313Z,102837.38
2019-04-16T19:26:47.519Z,102847.03
2019-04-16T19:29:19.922Z,102847.26
2019-04-16T19:31:54.919Z,102849.55
2019-04-16T19:34:26.012Z,102844.34
2019-04-16T19:36:59.669Z,102860.67
2019-04-16T19:39:32.086Z,102851.41
2019-04-16T19:42:05.885Z,102861.52
2019-04-16T19:44:39.898Z,102869.72
2019-04-16T19:47:12.086Z,102860.49
2019-04-16T19:49:44.298Z,102872.83
2019-04-16T19:52:17.302Z,102874.81
2019-04-16T19:54:50.158Z,102832.27
2019-04-16T19:57:22.357Z,102877.59
2019-04-16T19:59:54.998Z,102881.22
2019-04-16T20:02:33.071Z,102875.30
2019-04-16T20:05:01.348Z,102882.55
2019-04-16T20:07:33.639Z,102884.77
2019-04-16T20:10:07.235Z,102887.61
2019-04-16T20:12:39.509Z,102884.45
2019-04-16T20:15:12.770Z,102888.00
2019-04-16T20:17:45.073Z,102894.15
2019-04-16T20:20:17.357Z,102893.48
2019-04-16T20:22:49.689Z,102840.86
2019-04-16T20:25:22.035Z,102884.27
2019-04-16T20:27:54.267Z,102885.92
2019-04-16T20:30:26.582Z,102886.78
2019-04-16T20:32:58.794Z,102885.11
2019-04-16T20:35:31.045Z,102885.02
2019-04-16T20:38:03.339Z,102886.84
2019-04-16T20:40:36.312Z,102889.12
2019-04-16T20:43:08.542Z,102884.44
2019-04-16T20:45:40.679Z,102884.88
2019-04-16T20:48:13.220Z,102894.20
2019-04-16T20:50:45.243Z,102889.16
2019-04-16T20:53:17.823Z,102893.77
2019-04-16T20:55:50.039Z,102892.95
2019-04-16T20:58:22.091Z,102893.89
2019-04-16T21:00:58.368Z,102839.32
2019-04-16T21:03:31.173Z,102893.25
2019-04-16T21:06:07.129Z,102894.56
2019-04-16T21:08:37.678Z,102897.06
2019-04-16T21:11:09.887Z,102901.83
2019-04-16T21:13:42.205Z,102907.41
2019-04-16T21:16:14.241Z,102901.37
2019-04-16T21:18:46.318Z,102907.61
2019-04-16T21:21:19.592Z,102910.09
2019-04-16T21:23:52.400Z,102912.92
2019-04-16T21:26:24.354Z,102916.28
2019-04-16T21:29:02.005Z,102916.28
2019-04-16T21:31:42.211Z,102918.23
2019-04-16T21:34:24.932Z,102920.46
2019-04-16T21:37:10.671Z,102923.19
2019-04-16T21:39:47.018Z,102926.75
2019-04-16T21:42:17.903Z,102924.65
2019-04-16T21:44:49.815Z,102930.83
2019-04-16T21:47:23.639Z,102927.42
2019-04-16T21:49:55.535Z,102926.52
2019-04-16T21:52:27.464Z,102927.31
2019-04-16T21:55:02.506Z,102928.83
2019-04-16T21:57:33.107Z,102928.02
2019-04-16T22:00:09.811Z,102932.46
2019-04-16T22:02:41.811Z,102923.78
2019-04-16T22:05:16.753Z,102933.78
2019-04-16T22:07:47.848Z,102929.84
2019-04-16T22:10:20.059Z,102932.78
2019-04-16T22:12:52.352Z,102933.86
2019-04-16T22:15:25.483Z,102928.63
2019-04-16T22:17:58.029Z,102930.48
2019-04-16T22:20:31.752Z,102929.93
2019-04-16T22:23:03.719Z,102932.70
2019-04-16T22:25:35.950Z,102934.91
2019-04-16T22:28:11.396Z,102934.73
2019-04-16T22:30:41.559Z,102935.98
2019-04-16T22:33:13.502Z,102935.66
2019-04-16T22:35:45.440Z,102936.02
2019-04-16T22:38:17.470Z,102941.84
2019-04-16T22:40:51.540Z,102946.28
2019-04-16T22:43:35.328Z,102945.23
2019-04-16T22:46:08.908Z,102939.23
2019-04-16T22:48:42.572Z,102949.76
2019-04-16T22:51:14.625Z,102944.83
2019-04-16T22:53:49.509Z,102956.13
2019-04-16T22:56:22.042Z,102951.78
2019-04-16T22:58:54.055Z,102948.83
2019-04-16T23:01:27.766Z,102956.36
2019-04-16T23:03:59.736Z,102959.59
2019-04-16T23:06:31.687Z,102959.63
2019-04-16T23:09:05.339Z,102964.58
2019-04-16T23:11:39.159Z,102963.48
2019-04-16T23:14:11.229Z,102966.42
2019-04-16T23:16:43.175Z,102966.52
2019-04-16T23:19:17.473Z,102963.27
2019-04-16T23:21:48.760Z,102964.61
2019-04-16T23:24:23.375Z,102966.16
2019-04-16T23:26:54.647Z,102968.91
2019-04-16T23:29:26.591Z,102970.75
2019-04-16T23:31:58.621Z,102971.24
2019-04-16T23:34:30.533Z,102971.75
2019-04-16T23:37:02.954Z,102975.75
2019-04-16T23:39:36.692Z,102978.63
2019-04-16T23:42:08.623Z,102979.06
2019-04-16T23:45:00.216Z,102978.91
2019-04-16T23:47:42.024Z,102981.61
2019-04-16T23:50:18.002Z,102981.08
2019-04-16T23:53:00.404Z,102983.78
2019-04-16T23:55:36.971Z,102981.61
2019-04-16T23:58:13.003Z,102982.05
